Time;durP1;ratioP1;P1;durP2;ratioP2;P2;SDS_P1;SDS_P2;PMS_P1;PMS_P2;Temp;Humidity;BMP_temperature;BMP_pressure;BME280_temperature;BME280_humidity;BME280_pressure;Samples;Min_cycle;Max_cycle;Signal;HPM_P1;HPM_P2
2022/05/02 00:00:10;;;;;;;12.03;10.93;;;;;;;10.88;100.00;99507.00;5033918;28;20221;-76
2022/05/02 00:02:37;;;;;;;11.87;10.87;;;;;;;10.83;100.00;99508.72;5033378;28;20269;-78
2022/05/02 00:05:06;;;;;;;12.40;11.30;;;;;;;10.69;100.00;99508.06;5000169;28;20186;-78
2022/05/02 00:07:32;;;;;;;12.00;11.00;;;;;;;10.63;100.00;99495.56;5000407;28;20550;-78
2022/05/02 00:09:59;;;;;;;12.30;11.30;;;;;;;10.64;100.00;99489.16;5033931;28;20174;-75
2022/05/02 00:12:26;;;;;;;12.00;10.97;;;;;;;10.67;100.00;99495.94;5033478;28;20191;-77
2022/05/02 00:14:53;;;;;;;12.23;11.13;;;;;;;10.51;100.00;99492.78;5000430;28;20202;-76
2022/05/02 00:17:56;;;;;;;11.93;11.00;;;;;;;10.40;100.00;99488.19;5016004;28;20823;-75
2022/05/02 00:20:07;;;;;;;13.10;11.90;;;;;;;10.41;100.00;99487.13;5019182;28;20593;-77
2022/05/02 00:22:34;;;;;;;13.03;11.77;;;;;;;10.43;100.00;99479.69;5000153;28;20500;-75
2022/05/02 00:25:01;;;;;;;12.70;11.50;;;;;;;10.24;100.00;99478.03;5033551;28;20175;-78
2022/05/02 00:27:30;;;;;;;12.03;11.03;;;;;;;10.12;100.00;99480.56;5033977;28;20194;-75
2022/05/02 00:29:57;;;;;;;12.23;11.13;;;;;;;10.05;100.00;99484.38;4999509;28;20252;-76
2022/05/02 00:32:24;;;;;;;12.70;11.50;;;;;;;10.06;100.00;99473.44;5033215;28;20186;-75
2022/05/02 00:34:51;;;;;;;12.40;11.40;;;;;;;9.97;100.00;99473.94;5033467;28;20829;-77
2022/05/02 00:37:18;;;;;;;12.63;11.43;;;;;;;9.89;100.00;99464.31;5000091;28;20210;-76
2022/05/02 00:39:45;;;;;;;12.53;11.43;;;;;;;9.93;100.00;99470.06;5016277;28;20193;-77
2022/05/02 00:42:12;;;;;;;12.43;11.33;;;;;;;9.82;100.00;99470.78;5034301;28;20189;-76
2022/05/02 00:44:43;;;;;;;12.40;11.40;;;;;;;9.72;100.00;99469.41;5034999;28;20186;-76
2022/05/02 00:47:10;;;;;;;12.70;11.60;;;;;;;9.68;100.00;99464.72;5016931;28;20171;-76
2022/05/02 00:49:38;;;;;;;12.80;11.60;;;;;;;9.60;100.00;99465.81;5017566;28;20236;-75
2022/05/02 00:52:05;;;;;;;12.90;11.80;;;;;;;9.52;100.00;99463.38;5039272;28;20179;-77
2022/05/02 00:54:33;;;;;;;12.53;11.43;;;;;;;9.47;100.00;99470.44;5038893;28;20210;-77
2022/05/02 00:57:00;;;;;;;12.80;11.70;;;;;;;9.42;100.00;99470.25;5021859;28;20213;-78
2022/05/02 00:59:27;;;;;;;13.03;11.93;;;;;;;9.36;100.00;99469.25;5038034;28;20224;-75
2022/05/02 01:01:54;;;;;;;12.97;11.83;;;;;;;9.33;100.00;99476.91;5037938;28;20241;-75
2022/05/02 01:04:22;;;;;;;13.60;12.40;;;;;;;9.31;100.00;99473.59;5038504;28;20162;-78
2022/05/02 01:09:34;;;;;;;12.87;11.67;;;;;;;9.23;100.00;99472.84;5039081;28;20206;-76
2022/05/02 01:12:01;;;;;;;13.23;12.13;;;;;;;9.18;100.00;99483.34;5039463;28;20206;-77
2022/05/02 01:14:32;;;;;;;13.27;12.10;;;;;;;9.14;100.00;99486.66;5038232;28;20221;-76
2022/05/02 01:17:00;;;;;;;12.93;11.77;;;;;;;9.09;100.00;99478.47;5021355;28;20204;-78
2022/05/02 01:19:27;;;;;;;13.70;12.43;;;;;;;9.02;100.00;99469.66;5037757;28;20260;-76
2022/05/02 01:21:55;;;;;;;12.47;11.40;;;;;;;8.97;100.00;99470.28;5021200;28;20187;-76
2022/05/02 01:24:22;;;;;;;12.60;11.50;;;;;;;8.86;100.00;99470.16;5037575;28;20175;-77
2022/05/02 01:26:49;;;;;;;12.90;11.80;;;;;;;8.75;100.00;99475.13;5020677;28;20221;-77
2022/05/02 01:29:15;;;;;;;13.47;12.27;;;;;;;8.68;100.00;99471.63;5020656;28;20278;-77
2022/05/02 01:31:45;;;;;;;13.23;12.10;;;;;;;8.62;100.00;99472.50;5020577;28;20214;-79
2022/05/02 01:34:12;;;;;;;13.47;12.27;;;;;;;8.57;100.00;99483.00;5020979;28;20309;-77
2022/05/02 01:36:39;;;;;;;13.93;12.70;;;;;;;8.52;100.00;99474.78;5038276;28;20210;-79
2022/05/02 01:39:06;;;;;;;12.77;11.73;;;;;;;8.44;100.00;99469.69;5038379;28;20265;-78
2022/05/02 01:41:33;;;;;;;13.50;12.27;;;;;;;8.38;100.00;99468.66;5037877;28;20190;-80
2022/05/02 01:44:00;;;;;;;13.27;12.17;;;;;;;8.33;100.00;99467.66;5020223;28;20624;-78
2022/05/02 01:46:26;;;;;;;12.07;11.07;;;;;;;8.22;100.00;99461.06;5036994;28;20190;-78
2022/05/02 01:48:55;;;;;;;13.50;12.20;;;;;;;8.15;100.00;99454.94;5019777;28;20269;-79
2022/05/02 01:51:23;;;;;;;13.10;12.00;;;;;;;8.13;100.00;99456.97;5020095;28;20213;-78
2022/05/02 01:53:50;;;;;;;12.67;11.47;;;;;;;8.07;100.00;99460.47;5037081;28;20261;-80
2022/05/02 01:56:17;;;;;;;12.87;11.67;;;;;;;8.03;100.00;99458.41;5036986;28;20228;-77
2022/05/02 01:58:44;;;;;;;12.63;11.53;;;;;;;7.93;100.00;99464.19;5036764;28;20183;-81
2022/05/02 02:01:10;;;;;;;12.70;11.50;;;;;;;7.86;100.00;99466.84;5018351;28;20426;-75
2022/05/02 02:03:37;;;;;;;12.60;11.53;;;;;;;7.81;100.00;99461.31;5035761;28;20585;-75
2022/05/02 02:06:04;;;;;;;12.87;11.77;;;;;;;7.76;100.00;99460.28;5036665;28;20661;-75
2022/05/02 02:08:33;;;;;;;13.10;12.00;;;;;;;7.70;100.00;99463.78;5036478;28;20266;-78
2022/05/02 02:11:09;;;;;;;13.67;12.37;;;;;;;7.65;100.00;99464.38;5036310;28;20186;-78
2022/05/02 02:13:38;;;;;;;14.50;13.20;;;;;;;7.67;100.00;99465.00;5035621;28;20179;-78
2022/05/02 02:16:07;;;;;;;14.03;12.83;;;;;;;7.63;100.00;99463.78;5036093;28;20526;-78
2022/05/02 02:18:35;;;;;;;14.37;13.07;;;;;;;7.58;100.00;99466.25;5035985;28;20193;-78
2022/05/02 02:21:03;;;;;;;14.17;12.87;;;;;;;7.59;100.00;99465.22;5036005;28;20202;-81
2022/05/02 02:23:31;;;;;;;13.70;12.50;;;;;;;7.56;100.00;99462.16;5018378;28;20193;-79
2022/05/02 02:25:58;;;;;;;13.77;12.53;;;;;;;7.53;100.00;99466.03;5019102;28;20277;-78
2022/05/02 02:28:25;;;;;;;14.00;12.63;;;;;;;7.47;100.00;99461.50;5018604;28;20182;-78
2022/05/02 02:30:52;;;;;;;14.53;13.23;;;;;;;7.49;100.00;99449.63;5018522;28;20210;-78
2022/05/02 02:33:20;;;;;;;15.10;13.60;;;;;;;7.41;100.00;99452.50;5035493;28;20218;-79
2022/05/02 02:35:47;;;;;;;12.67;11.47;;;;;;;7.36;100.00;99454.13;5035702;28;20617;-80
2022/05/02 02:38:14;;;;;;;13.40;12.30;;;;;;;7.29;100.00;99450.59;5035316;28;20273;-78
2022/05/02 02:40:41;;;;;;;14.07;12.87;;;;;;;7.25;100.00;99457.38;5035950;28;20217;-77
2022/05/02 02:43:09;;;;;;;14.77;13.47;;;;;;;7.22;100.00;99455.13;5001546;28;20233;-80
2022/05/02 02:45:35;;;;;;;13.77;12.57;;;;;;;7.20;100.00;99455.31;5035775;28;20192;-79
2022/05/02 02:48:02;;;;;;;14.70;13.40;;;;;;;7.18;100.00;99452.03;5001704;28;20542;-79
2022/05/02 02:50:29;;;;;;;15.10;13.63;;;;;;;7.17;100.00;99457.56;5034556;28;20436;-77
2022/05/02 02:52:56;;;;;;;15.17;13.77;;;;;;;7.16;100.00;99461.25;5018513;28;20240;-79
2022/05/02 02:55:23;;;;;;;16.30;14.80;;;;;;;7.13;100.00;99451.81;5018149;28;20233;-79
2022/05/02 02:57:50;;;;;;;14.97;13.57;;;;;;;7.09;100.00;99448.72;5035974;28;20479;-79
2022/05/02 03:00:17;;;;;;;15.13;13.73;;;;;;;7.12;100.00;99454.69;5035495;28;20190;-76
2022/05/02 03:02:44;;;;;;;15.50;14.10;;;;;;;7.09;100.00;99455.94;5034906;28;20296;-74
2022/05/02 03:07:58;;;;;;;14.57;13.37;;;;;;;7.01;100.00;99448.91;5020660;28;20182;-79
2022/05/02 03:10:26;;;;;;;15.63;14.30;;;;;;;6.98;100.00;99453.84;5017753;28;20187;-78
2022/05/02 03:12:54;;;;;;;14.20;12.90;;;;;;;6.93;100.00;99451.78;5017656;28;20194;-78
2022/05/02 03:15:21;;;;;;;13.30;12.10;;;;;;;6.88;100.00;99448.88;5034752;28;20226;-77
2022/05/02 03:17:48;;;;;;;14.50;13.20;;;;;;;6.85;100.00;99446.63;5034932;28;20549;-77
2022/05/02 03:20:14;;;;;;;14.70;13.30;;;;;;;6.84;100.00;99438.84;5011479;28;20198;-79
2022/05/02 03:22:41;;;;;;;13.60;12.40;;;;;;;6.81;100.00;99442.69;5015335;28;20203;-78
2022/05/02 03:25:09;;;;;;;14.40;13.10;;;;;;;6.81;100.00;99436.59;4997834;28;20211;-81
2022/05/02 03:27:35;;;;;;;15.13;13.70;;;;;;;6.79;100.00;99446.59;5014761;28;20218;-78
2022/05/02 03:30:02;;;;;;;14.87;13.50;;;;;;;6.75;100.00;99435.53;4997933;28;20753;-78
2022/05/02 03:32:29;;;;;;;14.93;13.60;;;;;;;6.73;100.00;99436.72;4997234;28;20806;-78
2022/05/02 03:34:56;;;;;;;13.77;12.57;;;;;;;6.68;100.00;99439.16;4997722;28;20541;-78
2022/05/02 03:37:23;;;;;;;14.33;12.93;;;;;;;6.67;100.00;99442.88;4999610;28;20274;-78
2022/05/02 03:39:50;;;;;;;14.37;13.03;;;;;;;6.67;100.00;99441.03;5033399;28;20280;-79
2022/05/02 03:42:16;;;;;;;15.03;13.53;;;;;;;6.67;100.00;99443.69;5033446;28;20226;-76
2022/05/02 03:44:43;;;;;;;14.47;13.07;;;;;;;6.65;100.00;99443.06;5033548;28;20566;-78
2022/05/02 03:47:10;;;;;;;14.93;13.63;;;;;;;6.69;100.00;99438.97;5033189;28;20186;-79
2022/05/02 03:49:37;;;;;;;14.83;13.53;;;;;;;6.77;100.00;99435.31;5015705;28;20217;-80
2022/05/02 03:52:05;;;;;;;15.20;13.67;;;;;;;6.73;100.00;99447.38;5033642;28;20215;-77
2022/05/02 03:54:32;;;;;;;14.53;13.23;;;;;;;6.76;100.00;99447.81;5033409;28;20495;-79
2022/05/02 03:56:58;;;;;;;15.10;13.77;;;;;;;6.85;100.00;99453.78;5033193;28;20448;-80
2022/05/02 03:59:25;;;;;;;14.90;13.60;;;;;;;6.91;100.00;99444.97;5015742;28;20205;-77
2022/05/02 04:01:52;;;;;;;14.77;13.47;;;;;;;6.98;100.00;99448.50;5032564;28;20246;-79
2022/05/02 04:04:19;;;;;;;14.50;13.10;;;;;;;7.00;100.00;99449.09;5015481;28;20480;-78
2022/05/02 04:06:47;;;;;;;14.13;12.73;;;;;;;7.05;100.00;99447.50;5016044;28;20225;-77
2022/05/02 04:09:14;;;;;;;15.13;13.30;;;;;;;7.18;100.00;99443.22;5016284;28;20184;-79
2022/05/02 04:11:41;;;;;;;15.00;13.60;;;;;;;7.26;100.00;99441.19;5017264;28;20212;-79
2022/05/02 04:14:08;;;;;;;15.00;13.63;;;;;;;7.39;100.00;99443.88;5000181;28;20212;-80
2022/05/02 04:16:35;;;;;;;14.70;13.33;;;;;;;7.48;100.00;99453.31;5016299;28;20283;-80
2022/05/02 04:19:01;;;;;;;14.37;13.00;;;;;;;7.60;100.00;99453.53;5016192;28;20185;-79
2022/05/02 04:21:28;;;;;;;15.10;13.80;;;;;;;7.70;100.00;99453.13;5015797;28;20215;-79
2022/05/02 04:23:58;;;;;;;15.00;13.67;;;;;;;7.83;100.00;99453.94;5015989;28;20201;-79
2022/05/02 04:26:26;;;;;;;14.87;13.53;;;;;;;7.94;100.00;99452.47;5015109;28;20542;-79
2022/05/02 04:28:53;;;;;;;15.10;13.63;;;;;;;8.06;100.00;99458.03;5033461;28;20293;-79
2022/05/02 04:31:20;;;;;;;13.83;12.53;;;;;;;8.18;100.00;99451.84;5016065;28;20566;-80
2022/05/02 04:33:47;;;;;;;14.10;12.87;;;;;;;8.37;100.00;99458.19;5015997;28;20542;-79
2022/05/02 04:36:14;;;;;;;13.73;12.57;;;;;;;8.54;100.00;99469.25;5033071;28;20232;-79
2022/05/02 04:38:40;;;;;;;15.07;13.77;;;;;;;8.67;100.00;99462.00;5016078;28;20182;-79
2022/05/02 04:41:07;;;;;;;13.30;12.20;;;;;;;8.87;100.00;99463.75;5015845;28;20260;-80
2022/05/02 04:43:34;;;;;;;16.70;15.10;;;;;;;9.07;100.00;99469.81;5033414;28;20224;-79
2022/05/02 04:46:01;;;;;;;31.60;27.27;;;;;;;9.22;100.00;99467.69;5015951;28;20269;-79
2022/05/02 04:48:28;;;;;;;14.43;13.13;;;;;;;9.43;100.00;99483.38;5032940;28;20236;-79
2022/05/02 04:50:54;;;;;;;14.33;13.10;;;;;;;9.66;100.00;99486.31;5033097;28;20533;-80
2022/05/02 04:53:25;;;;;;;13.07;11.93;;;;;;;9.93;100.00;99475.44;5015705;28;20507;-79
2022/05/02 04:55:52;;;;;;;12.57;11.37;;;;;;;10.07;100.00;99482.31;5016091;28;20309;-79
2022/05/02 04:58:19;;;;;;;11.13;10.13;;;;;;;10.23;100.00;99483.59;4999224;28;20229;-77
2022/05/02 05:00:45;;;;;;;12.43;11.40;;;;;;;10.64;100.00;99491.81;5032495;28;20214;-77
2022/05/02 05:03:12;;;;;;;11.37;10.43;;;;;;;10.99;100.00;99479.47;5014611;28;20226;-77
2022/05/02 05:05:39;;;;;;;10.67;9.87;;;;;;;11.26;100.00;99473.72;5014729;28;20175;-78
2022/05/02 05:08:06;;;;;;;10.07;9.27;;;;;;;11.49;100.00;99481.84;5031952;28;20244;-76
2022/05/02 05:10:45;;;;;;;9.97;9.17;;;;;;;11.89;100.00;99482.94;5014760;28;20463;-78
2022/05/02 05:13:18;;;;;;;9.77;8.90;;;;;;;12.30;100.00;99486.56;5015139;28;20358;-77
2022/05/02 05:16:21;;;;;;;9.07;8.37;;;;;;;12.60;100.00;99481.03;5015419;28;20273;-78
2022/05/02 05:19:01;;;;;;;8.73;8.00;;;;;;;12.93;100.00;99472.31;5032421;28;20578;-79
2022/05/02 05:21:45;;;;;;;8.47;7.67;;;;;;;12.92;100.00;99474.22;4998690;28;20213;-78
2022/05/02 05:24:36;;;;;;;8.90;8.07;;;;;;;12.96;100.00;99485.28;4999777;28;20171;-77
2022/05/02 05:27:17;;;;;;;8.80;8.00;;;;;;;13.29;100.00;99480.06;5015029;28;20218;-77
2022/05/02 05:30:04;;;;;;;8.53;7.83;;;;;;;13.48;100.00;99464.53;4999073;28;20261;-78
2022/05/02 05:32:56;;;;;;;8.93;8.10;;;;;;;13.67;100.00;99466.75;5014811;28;20225;-77
2022/05/02 05:35:36;;;;;;;9.03;7.70;;;;;;;13.77;100.00;99482.25;4998297;28;20314;-78
2022/05/02 05:38:20;;;;;;;8.73;8.03;;;;;;;13.85;100.00;99481.88;5036176;28;20206;-78
2022/05/02 05:40:52;;;;;;;8.60;7.90;;;;;;;14.10;100.00;99460.72;5019223;28;20499;-77
2022/05/02 05:43:28;;;;;;;8.03;7.23;;;;;;;14.32;100.00;99460.78;5018614;28;20635;-77
2022/05/02 05:46:08;;;;;;;8.87;8.10;;;;;;;13.78;100.00;99465.03;5018533;28;20201;-77
2022/05/02 05:48:53;;;;;;;8.97;8.27;;;;;;;13.98;100.00;99451.91;5002357;28;20662;-77
2022/05/02 05:51:34;;;;;;;9.03;8.13;;;;;;;14.09;100.00;99453.69;5035403;28;20269;-78
2022/05/02 05:54:15;;;;;;;9.33;8.53;;;;;;;14.07;100.00;99458.50;5018331;28;20570;-77
2022/05/02 05:56:57;;;;;;;9.00;8.30;;;;;;;13.88;100.00;99459.00;5035614;28;20226;-78
2022/05/02 05:59:48;;;;;;;9.27;8.57;;;;;;;14.03;100.00;99464.63;5035281;28;20263;-78
2022/05/02 06:02:27;;;;;;;9.00;8.30;;;;;;;14.17;100.00;99460.53;5034359;28;20230;-77
2022/05/02 06:04:58;;;;;;;9.20;8.50;;;;;;;14.14;100.00;99457.53;5017708;28;20175;-77
2022/05/02 06:07:27;;;;;;;9.30;8.60;;;;;;;14.34;100.00;99461.34;5001302;28;20193;-78
2022/05/02 06:10:00;;;;;;;8.63;7.90;;;;;;;14.68;100.00;99461.28;5017910;28;20227;-77
2022/05/02 06:12:29;;;;;;;9.83;8.90;;;;;;;14.86;100.00;99463.66;5000927;28;20624;-78
2022/05/02 06:20:34;;;;;;;8.63;7.93;;;;;;;15.20;100.00;99458.94;5003556;28;20210;-78
2022/05/02 06:23:03;;;;;;;9.30;8.50;;;;;;;15.36;100.00;99455.31;5017903;28;20193;-77
2022/05/02 06:25:29;;;;;;;8.90;8.17;;;;;;;15.25;100.00;99459.00;5017094;28;20262;-78
2022/05/02 06:27:57;;;;;;;9.17;8.37;;;;;;;15.38;100.00;99458.59;5017823;28;20176;-78
2022/05/02 06:30:26;;;;;;;9.07;8.27;;;;;;;15.54;100.00;99465.00;5017445;28;20221;-77
2022/05/02 06:32:54;;;;;;;8.93;8.23;;;;;;;15.70;100.00;99461.34;5001248;28;20196;-78
2022/05/02 06:35:22;;;;;;;9.40;8.50;;;;;;;15.80;100.00;99456.84;5017196;28;20331;-78
2022/05/02 06:37:50;;;;;;;8.80;8.10;;;;;;;15.97;100.00;99454.00;5017528;28;20279;-78
2022/05/02 06:40:31;;;;;;;9.67;8.77;;;;;;;16.17;100.00;99456.84;5016275;28;20374;-78
2022/05/02 06:43:17;;;;;;;9.37;8.60;;;;;;;16.40;100.00;99460.25;5016560;28;20279;-78
2022/05/02 06:45:59;;;;;;;9.47;8.77;;;;;;;16.51;100.00;99454.63;5016448;28;20210;-78
2022/05/02 06:48:43;;;;;;;9.50;8.80;;;;;;;16.61;100.00;99462.81;5015840;28;20197;-78
2022/05/02 06:51:15;;;;;;;9.50;8.63;;;;;;;16.63;100.00;99459.84;5016772;28;20181;-78
2022/05/02 06:53:57;;;;;;;10.13;9.27;;;;;;;16.61;100.00;99462.03;5028965;28;20210;-78
2022/05/02 06:56:44;;;;;;;9.67;8.60;;;;;;;16.93;100.00;99460.00;5033496;28;20186;-78
2022/05/02 06:59:23;;;;;;;9.57;8.77;;;;;;;17.09;100.00;99460.84;4981206;28;20215;-78
2022/05/02 07:01:53;;;;;;;9.30;8.60;;;;;;;17.13;100.00;99462.75;5013103;28;20258;-78
2022/05/02 07:05:01;;;;;;;9.93;8.97;;;;;;;17.29;100.00;99460.91;4995799;28;20270;-78
2022/05/02 07:07:31;;;;;;;9.83;9.07;;;;;;;17.46;100.00;99453.34;4926134;28;20214;-79
2022/05/02 07:10:04;;;;;;;9.87;8.87;;;;;;;17.59;100.00;99441.22;5013440;28;20234;-79
2022/05/02 07:12:33;;;;;;;9.70;8.90;;;;;;;17.63;100.00;99455.06;4996047;28;20594;-78
2022/05/02 07:15:06;;;;;;;9.13;8.40;;;;;;;17.72;100.00;99448.81;4995936;28;20484;-79
2022/05/02 07:17:42;;;;;;;9.80;9.00;;;;;;;17.84;100.00;99453.97;5013293;28;20207;-77
2022/05/02 07:20:19;;;;;;;10.47;9.57;;;;;;;17.74;100.00;99460.19;4995245;28;20194;-79
2022/05/02 07:23:07;;;;;;;10.83;9.93;;;;;;;17.78;100.00;99458.56;5013201;28;20254;-78
2022/05/02 07:25:39;;;;;;;10.73;9.67;;;;;;;17.87;100.00;99454.22;5012638;28;20202;-79
2022/05/02 07:28:40;;;;;;;10.10;9.30;;;;;;;17.95;100.00;99453.72;4992269;28;20535;-79
2022/05/02 07:31:09;;;;;;;11.13;10.03;;;;;;;17.00;100.00;99454.31;5015543;28;20219;-77
2022/05/02 07:33:37;;;;;;;11.00;10.13;;;;;;;17.36;100.00;99455.22;5016079;28;20187;-79
2022/05/02 07:36:05;;;;;;;11.50;10.50;;;;;;;17.75;100.00;99459.13;5014958;28;20236;-78
2022/05/02 07:38:36;;;;;;;11.10;10.20;;;;;;;17.97;100.00;99456.94;5014808;28;20229;-78
2022/05/02 07:41:22;;;;;;;12.23;11.10;;;;;;;17.22;100.00;99454.13;5015062;28;20766;-78
2022/05/02 07:43:57;;;;;;;11.83;10.73;;;;;;;17.24;100.00;99452.78;5002143;28;20209;-78
2022/05/02 07:46:49;;;;;;;11.93;10.93;;;;;;;17.54;100.00;99446.63;5015261;28;20225;-79
2022/05/02 07:49:22;;;;;;;11.83;10.87;;;;;;;17.94;100.00;99449.38;5032260;28;20179;-77
2022/05/02 07:51:51;;;;;;;11.07;10.10;;;;;;;18.23;100.00;99446.91;5032094;28;20648;-78
2022/05/02 07:54:21;;;;;;;11.80;10.80;;;;;;;18.45;100.00;99441.16;5014382;28;20586;-77
2022/05/02 07:56:51;;;;;;;11.67;10.67;;;;;;;18.68;100.00;99450.59;5015054;28;20260;-77
2022/05/02 07:59:20;;;;;;;12.90;11.60;;;;;;;18.52;100.00;99446.28;5014271;28;20190;-77
2022/05/02 08:01:48;;;;;;;12.43;11.43;;;;;;;18.56;100.00;99450.09;4997444;28;20219;-77
2022/05/02 08:04:15;;;;;;;12.27;11.27;;;;;;;18.52;100.00;99440.88;5013151;28;20495;-77
2022/05/02 08:07:01;;;;;;;11.60;10.70;;;;;;;18.75;100.00;99443.00;4997207;28;20193;-77
2022/05/02 08:10:10;;;;;;;12.10;11.10;;;;;;;18.30;96.40;99443.88;5030457;28;20193;-79
2022/05/02 08:12:50;;;;;;;11.60;10.60;;;;;;;18.71;99.71;99441.94;5013846;28;20273;-78
2022/05/02 08:15:25;;;;;;;10.83;9.87;;;;;;;19.14;94.83;99443.06;5030624;28;20228;-77
2022/05/02 08:18:16;;;;;;;11.50;10.57;;;;;;;19.47;90.11;99439.63;4997109;28;20181;-78
2022/05/02 08:21:23;;;;;;;12.33;11.23;;;;;;;19.35;87.81;99445.41;5030653;28;20167;-77
2022/05/02 08:27:17;;;;;;;10.07;9.27;;;;;;;19.29;77.60;99435.66;5029622;28;20574;-78
2022/05/02 08:30:02;;;;;;;10.63;9.70;;;;;;;19.29;78.35;99442.97;5013804;28;20174;-78
2022/05/02 08:33:00;;;;;;;12.50;11.30;;;;;;;19.34;84.89;99434.81;5030585;28;20301;-77
2022/05/02 08:35:58;;;;;;;11.90;10.80;;;;;;;18.72;82.91;99429.97;5030023;28;20183;-79
2022/05/02 08:38:49;;;;;;;11.80;10.70;;;;;;;19.24;86.94;99435.69;5013455;28;20248;-78
2022/05/02 08:41:28;;;;;;;13.10;11.90;;;;;;;18.85;85.83;99424.75;4996800;28;20629;-78
2022/05/02 08:44:22;;;;;;;10.97;10.07;;;;;;;18.82;92.92;99429.91;5030432;28;20586;-78
2022/05/02 08:47:11;;;;;;;11.63;10.63;;;;;;;18.87;84.46;99428.00;5013543;28;20221;-79
2022/05/02 08:49:57;;;;;;;11.10;9.97;;;;;;;19.35;85.32;99425.56;5013069;28;20301;-77
2022/05/02 08:52:27;;;;;;;10.03;9.23;;;;;;;19.71;76.27;99423.44;5030150;28;20171;-77
2022/05/02 08:54:57;;;;;;;9.97;9.03;;;;;;;20.02;74.80;99432.13;5012862;28;20186;-77
2022/05/02 08:57:25;;;;;;;11.17;10.17;;;;;;;19.50;74.55;99433.66;5029843;28;20252;-78
2022/05/02 08:59:58;;;;;;;12.40;11.20;;;;;;;18.94;82.09;99429.59;5030125;28;20609;-77
2022/05/02 09:02:51;;;;;;;12.13;11.13;;;;;;;19.07;78.86;99420.84;4973975;28;1585661;-78
2022/05/02 09:05:37;;;;;;;10.70;9.80;;;;;;;19.33;74.96;99433.19;5030224;28;20174;-78
2022/05/02 09:08:32;;;;;;;11.13;10.13;;;;;;;19.04;75.37;99427.63;5031010;28;20542;-77
2022/05/02 09:11:34;;;;;;;12.77;11.77;;;;;;;18.77;80.55;99425.31;5030921;28;20178;-77
2022/05/02 09:14:46;;;;;;;11.50;10.60;;;;;;;19.28;77.07;99416.91;5000984;28;20276;-78
2022/05/02 09:17:48;;;;;;;12.00;11.00;;;;;;;19.27;82.48;99429.69;5017104;28;20199;-77
2022/05/02 09:20:56;;;;;;;13.63;12.30;;;;;;;19.83;80.16;99418.41;5034419;28;20213;-77
2022/05/02 09:23:52;;;;;;;12.20;11.20;;;;;;;20.11;76.48;99420.34;5017003;28;20252;-77
2022/05/02 09:26:57;;;;;;;13.97;12.77;;;;;;;19.72;75.66;99419.63;5017545;28;20229;-78
2022/05/02 09:29:52;;;;;;;11.33;10.40;;;;;;;20.39;79.28;99424.16;5016885;28;20186;-77
2022/05/02 09:32:57;;;;;;;12.47;11.37;;;;;;;20.67;75.20;99418.97;5034460;28;20171;-77
2022/05/02 09:35:35;;;;;;;12.13;11.13;;;;;;;20.90;69.89;99413.47;5033822;28;20178;-77
2022/05/02 09:38:27;;;;;;;10.40;9.47;;;;;;;21.32;67.64;99420.03;5017351;28;20383;-77
2022/05/02 09:41:01;;;;;;;11.70;10.60;;;;;;;21.53;61.90;99415.88;5017390;28;20223;-77
2022/05/02 09:49:57;;;;;;;12.80;11.80;;;;;;;21.95;64.25;99406.78;5019657;28;20239;-77
2022/05/02 09:52:38;;;;;;;12.83;11.83;;;;;;;21.34;61.06;99404.19;5001101;28;20176;-76
2022/05/02 09:58:29;;;;;;;12.47;11.30;;;;;;;21.76;64.28;99401.34;5002411;28;20193;-79
2022/05/02 10:01:06;;;;;;;12.33;11.33;;;;;;;22.09;62.39;99393.16;5016195;28;20214;-78
2022/05/02 10:03:43;;;;;;;12.03;11.03;;;;;;;22.26;60.77;99390.66;4995007;28;20187;-76
2022/05/02 10:06:14;;;;;;;12.03;11.03;;;;;;;22.43;58.24;99390.88;4993136;28;20269;-77
2022/05/02 10:08:52;;;;;;;10.87;9.97;;;;;;;22.49;59.38;99388.88;4977346;28;20201;-77
2022/05/02 10:11:32;;;;;;;10.73;9.90;;;;;;;22.58;55.13;99384.31;4993158;28;20276;-77
2022/05/02 10:14:14;;;;;;;10.33;9.33;;;;;;;22.45;55.11;99383.19;4993280;28;20216;-77
2022/05/02 10:16:42;;;;;;;11.90;10.87;;;;;;;22.55;52.51;99376.72;4993950;28;20217;-79
2022/05/02 10:19:28;;;;;;;11.10;10.10;;;;;;;22.63;51.59;99374.06;4992950;28;20318;-77
2022/05/02 10:22:35;;;;;;;9.50;8.70;;;;;;;22.75;50.30;99370.88;4976510;28;20192;-78
2022/05/02 10:25:34;;;;;;;9.60;8.80;;;;;;;22.63;51.65;99362.38;4994260;28;20256;-76
2022/05/02 10:28:23;;;;;;;11.37;10.27;;;;;;;21.76;56.08;99373.25;4994371;28;20471;-76
2022/05/02 10:31:17;;;;;;;13.33;12.20;;;;;;;21.92;57.85;99358.25;4994054;28;20176;-76
2022/05/02 10:33:46;;;;;;;12.30;11.40;;;;;;;21.58;59.59;99353.13;4993040;28;20182;-76
2022/05/02 10:36:13;;;;;;;10.53;9.63;;;;;;;21.92;56.70;99356.34;4992812;28;20314;-77
2022/05/02 10:39:01;;;;;;;9.37;8.37;;;;;;;22.31;57.23;99361.34;4993780;28;20186;-75
2022/05/02 10:41:28;;;;;;;8.33;7.63;;;;;;;22.81;53.48;99351.34;4992512;28;20210;-76
2022/05/02 10:44:03;;;;;;;10.37;9.47;;;;;;;23.14;53.22;99356.63;4992920;28;20504;-77
2022/05/02 10:46:32;;;;;;;9.40;8.57;;;;;;;23.35;50.14;99343.25;4992240;28;20237;-77
2022/05/02 10:49:27;;;;;;;10.75;9.90;;;;;;;23.21;50.82;99346.06;4993955;28;20184;-76
2022/05/02 10:52:15;;;;;;;9.82;9.02;;;;;;;23.41;50.81;99339.31;4993563;28;20178;-78
2022/05/02 10:54:48;;;;;;;8.90;8.20;;;;;;;23.42;51.98;99340.91;4993598;28;20204;-77
2022/05/02 10:57:31;;;;;;;8.45;7.75;;;;;;;23.63;54.34;99340.13;4992439;28;20196;-78
2022/05/02 11:00:10;;;;;;;8.63;7.93;;;;;;;23.90;52.53;99341.06;4975753;28;20204;-77
2022/05/02 11:02:49;;;;;;;8.80;8.10;;;;;;;23.92;51.59;99334.19;5002557;28;20296;-78
2022/05/02 11:05:17;;;;;;;8.13;7.00;;;;;;;24.29;49.69;99343.88;5009869;28;20587;-78
2022/05/02 11:07:57;;;;;;;9.38;8.68;;;;;;;24.54;47.73;99331.38;4995473;28;20180;-79
2022/05/02 11:10:29;;;;;;;6.95;6.45;;;;;;;24.71;47.03;99330.59;4995296;28;20218;-76
2022/05/02 11:13:02;;;;;;;8.45;7.65;;;;;;;24.89;46.46;99326.78;5012127;28;20531;-77
2022/05/02 11:15:48;;;;;;;8.20;7.40;;;;;;;25.13;46.49;99334.53;5011379;28;20247;-77
2022/05/02 11:21:25;;;;;;;8.27;7.57;;;;;;;25.79;45.60;99327.72;5010803;28;20211;-78
2022/05/02 11:24:10;;;;;;;9.32;8.55;;;;;;;26.02;44.34;99317.31;5012497;28;20522;-78
2022/05/02 11:26:45;;;;;;;8.35;7.35;;;;;;;26.26;42.22;99307.38;5011313;28;20209;-79
2022/05/02 11:29:48;;;;;;;8.52;7.72;;;;;;;26.26;41.59;99307.38;4994932;28;20209;-77
2022/05/02 11:32:40;;;;;;;7.22;6.63;;;;;;;26.38;41.94;99311.34;4994398;28;20202;-77
2022/05/02 11:35:12;;;;;;;7.32;6.72;;;;;;;26.40;41.51;99315.38;5009536;28;20184;-78
2022/05/02 11:37:55;;;;;;;6.85;6.25;;;;;;;26.32;38.98;99315.44;4994345;28;20214;-78
2022/05/02 11:40:34;;;;;;;7.20;6.60;;;;;;;26.13;39.10;99302.09;4994774;28;20606;-78
2022/05/02 11:43:03;;;;;;;6.60;6.00;;;;;;;25.96;39.23;99302.94;4995002;28;20212;-79
2022/05/02 11:45:44;;;;;;;6.70;6.20;;;;;;;25.72;39.65;99298.03;5010840;28;20603;-77
2022/05/02 11:48:50;;;;;;;5.65;5.20;;;;;;;25.64;39.60;99301.59;4979152;28;20217;-77
2022/05/02 11:51:43;;;;;;;6.50;5.78;;;;;;;25.53;40.81;99300.28;5011914;28;20219;-78
2022/05/02 11:54:26;;;;;;;5.72;5.22;;;;;;;25.34;39.13;99289.69;5011985;28;20590;-78
2022/05/02 11:56:59;;;;;;;6.05;5.53;;;;;;;25.07;40.83;99287.28;5011345;28;20542;-78
2022/05/02 11:59:40;;;;;;;5.85;5.38;;;;;;;24.79;39.38;99286.78;5010737;28;20537;-78
2022/05/02 12:02:20;;;;;;;5.95;5.47;;;;;;;24.59;39.47;99281.91;5010443;28;20253;-78
2022/05/02 12:04:48;;;;;;;6.13;5.63;;;;;;;24.51;40.32;99277.25;4994811;28;20220;-78
2022/05/02 12:07:19;;;;;;;6.28;5.50;;;;;;;24.49;40.84;99276.75;5011230;28;20488;-78
2022/05/02 12:09:47;;;;;;;6.60;6.00;;;;;;;24.43;41.37;99273.38;5011108;28;20684;-77
2022/05/02 12:12:15;;;;;;;5.63;5.22;;;;;;;24.56;41.08;99266.94;5011126;28;20294;-78
2022/05/02 12:14:42;;;;;;;6.43;5.70;;;;;;;24.81;41.17;99270.84;5010517;28;20648;-78
2022/05/02 12:17:10;;;;;;;5.00;4.60;;;;;;;24.94;39.42;99271.84;4994337;28;20569;-77
2022/05/02 12:19:39;;;;;;;5.07;4.65;;;;;;;24.82;39.48;99266.16;5010746;28;20538;-79